createdAt,value
2023-03-04T00:00:55.298Z,105.13
2023-03-04T00:01:57.591Z,112.81
2023-03-04T00:03:00.891Z,123.05
2023-03-04T00:04:04.180Z,115.37
2023-03-04T00:05:07.474Z,153.77
2023-03-04T00:06:10.770Z,133.29
2023-03-04T00:07:14.089Z,181.93
2023-03-04T00:08:17.381Z,148.65
2023-03-04T00:09:20.639Z,146.09
2023-03-04T00:10:23.927Z,148.65
2023-03-04T00:11:27.249Z,125.61
2023-03-04T00:12:30.528Z,130.73
2023-03-04T00:13:33.809Z,120.49
2023-03-04T00:14:37.253Z,115.37
2023-03-04T00:15:39.467Z,133.29
2023-03-04T00:16:42.703Z,107.69
2023-03-04T00:17:46.000Z,123.05
2023-03-04T00:18:49.287Z,143.53
2023-03-04T00:19:52.577Z,140.97
2023-03-04T00:20:55.867Z,94.89
2023-03-04T00:21:59.164Z,94.89
2023-03-04T00:23:01.500Z,92.33
2023-03-04T00:24:03.771Z,105.13
2023-03-04T00:25:07.070Z,84.65
2023-03-04T00:26:10.375Z,74.41
2023-03-04T00:27:13.659Z,69.29
2023-03-04T00:28:16.950Z,100.01
2023-03-04T00:29:20.251Z,87.21
2023-03-04T00:30:23.561Z,92.33
2023-03-04T00:31:26.821Z,107.69
2023-03-04T00:32:30.170Z,89.77
2023-03-04T00:33:33.405Z,92.33
2023-03-04T00:34:36.718Z,82.09
2023-03-04T00:35:39.986Z,0
2023-03-04T00:36:43.289Z,87.21
2023-03-04T00:37:45.616Z,92.33
2023-03-04T00:38:48.886Z,169.13
2023-03-04T00:39:52.173Z,0
2023-03-04T00:40:54.496Z,135.85
2023-03-04T00:41:57.772Z,110.25
2023-03-04T00:43:01.150Z,82.09
2023-03-04T00:44:04.371Z,107.69
2023-03-04T00:45:06.679Z,94.89
2023-03-04T00:46:08.981Z,92.33
2023-03-04T00:47:11.339Z,97.45
2023-03-04T00:48:13.599Z,112.81
2023-03-04T00:49:16.899Z,87.21
2023-03-04T00:50:19.808Z,112.81
2023-03-04T00:51:22.094Z,102.57
2023-03-04T00:52:25.403Z,161.45
2023-03-04T00:53:28.814Z,174.25
2023-03-04T00:54:31.973Z,164.01
2023-03-04T00:55:35.276Z,164.01
2023-03-04T00:56:38.577Z,156.33
2023-03-04T00:57:41.856Z,153.77
2023-03-04T00:58:45.156Z,117.93
2023-03-04T00:59:48.440Z,125.61
2023-03-04T01:00:51.727Z,115.37
2023-03-04T01:01:55.004Z,82.09
2023-03-04T01:02:58.303Z,89.77
2023-03-04T01:04:01.604Z,64.17
2023-03-04T01:05:03.907Z,59.05
2023-03-04T01:06:07.201Z,51.37
2023-03-04T01:07:10.504Z,66.73
2023-03-04T01:08:13.792Z,66.73
2023-03-04T01:09:17.101Z,74.41
2023-03-04T01:10:20.366Z,92.33
2023-03-04T01:11:23.650Z,87.21
2023-03-04T01:12:25.974Z,84.65
2023-03-04T01:13:28.278Z,87.21
2023-03-04T01:14:30.585Z,71.85
2023-03-04T01:15:32.889Z,76.97
2023-03-04T01:16:36.190Z,61.61
2023-03-04T01:17:39.475Z,0
2023-03-04T01:18:42.780Z,79.53
2023-03-04T01:19:46.064Z,84.65
2023-03-04T01:20:49.380Z,74.41
2023-03-04T01:21:52.660Z,64.17
2023-03-04T01:22:56.022Z,64.17
2023-03-04T01:23:59.232Z,82.09
2023-03-04T01:25:02.531Z,87.21
2023-03-04T01:26:05.880Z,76.97
2023-03-04T01:27:09.107Z,64.17
2023-03-04T01:28:12.416Z,74.41
2023-03-04T01:29:14.723Z,97.45
2023-03-04T01:30:18.008Z,94.89
2023-03-04T01:31:21.322Z,92.33
2023-03-04T01:32:24.603Z,100.01
2023-03-04T01:33:27.884Z,100.01
2023-03-04T01:34:31.178Z,89.77
2023-03-04T01:35:34.458Z,79.53
2023-03-04T01:36:37.905Z,74.41
2023-03-04T01:37:40.217Z,102.57
2023-03-04T01:38:42.525Z,84.65
2023-03-04T01:39:44.841Z,84.65
2023-03-04T01:40:48.118Z,87.21
2023-03-04T01:41:51.398Z,97.45
2023-03-04T01:42:54.690Z,94.89
2023-03-04T01:43:57.997Z,89.77
2023-03-04T01:45:01.284Z,89.77
2023-03-04T01:46:04.596Z,82.09
2023-03-04T01:47:07.923Z,92.33
2023-03-04T01:48:11.166Z,69.29
2023-03-04T01:49:14.459Z,79.53
2023-03-04T01:50:17.736Z,84.65
2023-03-04T01:51:21.045Z,110.25
2023-03-04T01:52:24.337Z,89.77
2023-03-04T01:53:26.649Z,89.77
2023-03-04T01:54:29.995Z,84.65
2023-03-04T01:55:33.218Z,97.45
2023-03-04T01:56:36.524Z,92.33
2023-03-04T01:57:39.800Z,115.37
2023-03-04T01:58:43.099Z,102.57
2023-03-04T01:59:46.406Z,97.45
2023-03-04T02:00:48.807Z,84.65
2023-03-04T02:01:51.017Z,107.69
2023-03-04T02:02:53.363Z,120.49
2023-03-04T02:03:55.627Z,120.49
2023-03-04T02:04:58.914Z,102.57
2023-03-04T02:06:02.219Z,110.25
2023-03-04T02:07:05.518Z,105.13
2023-03-04T02:08:08.786Z,110.25
2023-03-04T02:09:12.113Z,130.73
2023-03-04T02:10:15.370Z,125.61
2023-03-04T02:11:18.669Z,158.89
2023-03-04T02:12:21.974Z,133.29
2023-03-04T02:13:25.267Z,133.29
2023-03-04T02:14:28.562Z,146.09
2023-03-04T02:15:31.835Z,148.65
2023-03-04T02:16:35.133Z,158.89
2023-03-04T02:17:37.446Z,148.65
2023-03-04T02:18:40.739Z,169.13
2023-03-04T02:19:44.030Z,176.81
2023-03-04T02:20:47.413Z,164.01
2023-03-04T02:21:50.614Z,0
2023-03-04T02:22:53.903Z,146.09
2023-03-04T02:23:57.203Z,143.53
2023-03-04T02:24:59.516Z,143.53
2023-03-04T02:26:01.807Z,138.41
2023-03-04T02:27:04.140Z,125.61
2023-03-04T02:28:06.431Z,146.09
2023-03-04T02:29:09.745Z,133.29
2023-03-04T02:30:13.017Z,153.77
2023-03-04T02:31:16.312Z,123.05
2023-03-04T02:32:19.602Z,123.05
2023-03-04T02:33:23.536Z,146.09
2023-03-04T02:34:26.804Z,143.53
2023-03-04T02:35:30.099Z,143.53
2023-03-04T02:36:33.394Z,135.85
2023-03-04T02:37:36.767Z,153.77
2023-03-04T02:38:39.972Z,143.53
2023-03-04T02:39:43.256Z,135.85
2023-03-04T02:40:46.603Z,138.41
2023-03-04T02:41:48.882Z,130.73
2023-03-04T02:42:52.177Z,143.53
2023-03-04T02:44:58.742Z,148.65
2023-03-04T02:46:02.103Z,123.05
2023-03-04T02:47:05.325Z,158.89
2023-03-04T02:48:08.626Z,153.77
2023-03-04T02:49:11.914Z,174.25
2023-03-04T02:50:14.242Z,158.89
2023-03-04T02:51:16.540Z,143.53
2023-03-04T02:52:20.558Z,161.45
2023-03-04T02:53:22.887Z,179.37
2023-03-04T02:54:25.195Z,179.37
2023-03-04T02:55:28.482Z,164.01
2023-03-04T02:56:31.767Z,158.89
2023-03-04T02:57:35.066Z,181.93
2023-03-04T02:58:38.345Z,166.57
2023-03-04T02:59:41.629Z,181.93
2023-03-04T03:00:44.966Z,176.81
2023-03-04T03:01:48.217Z,179.37
2023-03-04T03:02:51.520Z,169.13
2023-03-04T03:03:54.809Z,41.35
2023-03-04T03:04:58.182Z,194.73
2023-03-04T03:06:01.397Z,176.81
2023-03-04T03:07:04.692Z,179.37
2023-03-04T03:08:06.991Z,189.61
2023-03-04T03:09:10.292Z,192.17
2023-03-04T03:10:13.615Z,184.49
2023-03-04T03:11:16.875Z,202.41
2023-03-04T03:12:20.684Z,194.73
2023-03-04T03:13:24.010Z,202.41
2023-03-04T03:14:27.276Z,220.33
2023-03-04T03:15:29.587Z,212.65
2023-03-04T03:16:31.895Z,240.81
2023-03-04T03:17:34.205Z,204.97
2023-03-04T03:18:36.529Z,222.89
2023-03-04T03:19:39.809Z,225.45
2023-03-04T03:20:43.101Z,204.97
2023-03-04T03:21:46.382Z,207.53
2023-03-04T03:23:52.980Z,210.09
2023-03-04T03:24:56.248Z,217.77
2023-03-04T03:25:59.562Z,202.41
2023-03-04T03:27:02.854Z,204.97
2023-03-04T03:28:06.150Z,212.65
2023-03-04T03:29:09.431Z,220.33
2023-03-04T03:30:12.725Z,215.21
2023-03-04T03:31:16.016Z,225.45
2023-03-04T03:32:18.327Z,230.57
2023-03-04T03:33:21.623Z,220.33
2023-03-04T03:34:24.895Z,240.81
2023-03-04T03:35:28.207Z,233.13
2023-03-04T03:36:31.490Z,225.45
2023-03-04T03:37:34.795Z,220.33
2023-03-04T03:38:38.071Z,222.89
2023-03-04T03:39:41.369Z,230.57
2023-03-04T03:40:43.693Z,217.77
2023-03-04T03:41:46.025Z,261.29
2023-03-04T03:42:48.307Z,245.93
2023-03-04T03:43:50.617Z,256.17
2023-03-04T03:44:53.901Z,220.33
2023-03-04T03:45:57.191Z,215.21
2023-03-04T03:47:00.493Z,225.45
2023-03-04T03:48:03.762Z,240.81
2023-03-04T03:49:07.063Z,230.57
2023-03-04T03:50:10.345Z,220.33
2023-03-04T03:51:13.655Z,271.53
2023-03-04T03:52:16.951Z,309.93
2023-03-04T03:53:20.941Z,253.61
2023-03-04T03:54:24.233Z,307.37
2023-03-04T03:55:27.513Z,289.45
2023-03-04T03:56:30.829Z,253.61
2023-03-04T03:57:33.138Z,248.49
2023-03-04T03:58:36.425Z,245.93
2023-03-04T03:59:39.713Z,233.13
2023-03-04T04:00:42.995Z,220.33
2023-03-04T04:01:46.309Z,233.13
2023-03-04T04:02:49.586Z,225.45
2023-03-04T04:03:52.880Z,228.01
2023-03-04T04:04:55.200Z,235.69
2023-03-04T04:05:57.496Z,233.13
2023-03-04T04:06:59.811Z,230.57
2023-03-04T04:08:02.118Z,238.25
2023-03-04T04:09:05.439Z,251.05
2023-03-04T04:10:08.710Z,253.61
2023-03-04T04:11:11.988Z,251.05
2023-03-04T04:12:14.292Z,0
2023-03-04T04:13:18.089Z,251.05
2023-03-04T04:14:21.380Z,253.61
2023-03-04T04:15:24.694Z,256.17
2023-03-04T04:16:27.958Z,268.97
2023-03-04T04:17:31.240Z,263.85
2023-03-04T04:18:34.530Z,230.57
2023-03-04T04:19:37.831Z,-202.07
2023-03-04T04:20:41.132Z,-130.39
2023-03-04T04:21:44.433Z,-209.75
2023-03-04T04:22:47.899Z,-199.51
2023-03-04T04:23:51.007Z,-255.83
2023-03-04T04:24:54.295Z,317.61
2023-03-04T04:25:56.675Z,307.37
2023-03-04T04:26:59.904Z,302.25
2023-03-04T04:28:03.184Z,320.17
2023-03-04T04:29:06.482Z,-322.39
2023-03-04T04:30:09.777Z,-309.59
2023-03-04T04:31:13.054Z,-314.71
2023-03-04T04:32:15.379Z,-291.67
2023-03-04T04:33:18.667Z,-314.71
2023-03-04T04:34:21.195Z,-301.91
2023-03-04T04:35:23.505Z,-299.35
2023-03-04T04:36:26.801Z,-314.71
2023-03-04T04:37:30.103Z,-291.67
2023-03-04T04:38:33.373Z,-307.03
2023-03-04T04:39:36.685Z,-289.11
2023-03-04T04:40:39.966Z,-304.47
2023-03-04T04:41:43.246Z,-230.23
2023-03-04T04:42:46.549Z,-263.51
2023-03-04T04:43:49.844Z,-299.35
2023-03-04T04:44:53.121Z,-296.79
2023-03-04T04:45:56.433Z,-309.59
2023-03-04T04:46:59.708Z,-309.59
2023-03-04T04:48:03.018Z,-327.51
2023-03-04T04:49:05.331Z,-327.51
2023-03-04T04:50:08.619Z,325.29
2023-03-04T04:51:11.902Z,-322.39
2023-03-04T04:52:15.186Z,-307.03
2023-03-04T04:53:18.488Z,-319.83
2023-03-04T04:54:21.767Z,-307.03
2023-03-04T04:55:25.073Z,-286.55
2023-03-04T04:56:27.384Z,-266.07
2023-03-04T04:57:29.700Z,-296.79
2023-03-04T04:58:32.967Z,-296.79
2023-03-04T04:59:36.274Z,-314.71
2023-03-04T05:00:39.708Z,-319.83
2023-03-04T05:01:42.849Z,-322.39
2023-03-04T05:02:46.159Z,325.29
2023-03-04T05:03:49.430Z,-319.83
2023-03-04T05:04:52.743Z,-309.59
2023-03-04T05:05:56.020Z,-296.79
2023-03-04T05:06:59.306Z,-324.95
2023-03-04T05:08:02.613Z,-314.71
2023-03-04T05:09:05.911Z,-309.59
2023-03-04T05:10:09.189Z,-314.71
2023-03-04T05:11:11.493Z,-301.91
2023-03-04T05:12:14.850Z,-324.95
2023-03-04T05:13:18.461Z,-319.83
2023-03-04T05:14:21.825Z,-314.71
2023-03-04T05:15:25.039Z,-324.95
2023-03-04T05:16:28.346Z,-307.03
2023-03-04T05:17:31.637Z,-309.59
2023-03-04T05:18:33.937Z,-322.39
2023-03-04T05:19:36.282Z,-309.59
2023-03-04T05:20:38.598Z,-322.39
2023-03-04T05:21:40.881Z,-314.71
2023-03-04T05:22:43.178Z,-324.95
2023-03-04T05:23:45.484Z,-327.51
2023-03-04T05:24:48.779Z,-322.39
2023-03-04T05:25:52.079Z,315.05
2023-03-04T05:26:55.379Z,-314.71
2023-03-04T05:27:58.651Z,320.17
2023-03-04T05:29:01.958Z,325.29
2023-03-04T05:30:05.238Z,320.17
2023-03-04T05:31:08.533Z,-304.47
2023-03-04T05:32:11.812Z,-319.83
2023-03-04T05:33:15.109Z,-304.47
2023-03-04T05:34:18.610Z,320.17
2023-03-04T05:35:21.889Z,304.81
2023-03-04T05:36:25.186Z,312.49
2023-03-04T05:37:27.477Z,315.05
2023-03-04T05:38:30.764Z,309.93
2023-03-04T05:39:34.076Z,-314.71
2023-03-04T05:40:37.383Z,307.37
2023-03-04T05:41:40.662Z,322.73
2023-03-04T05:42:43.944Z,325.29
2023-03-04T05:43:47.250Z,307.37
2023-03-04T05:44:49.567Z,-276.31
2023-03-04T05:45:51.852Z,325.29
2023-03-04T05:46:55.149Z,-312.15
2023-03-04T05:47:57.472Z,320.17
2023-03-04T05:48:59.805Z,322.73
2023-03-04T05:50:03.062Z,-176.47
2023-03-04T05:51:06.398Z,-225.11
2023-03-04T05:52:09.637Z,0
2023-03-04T05:53:12.964Z,-312.15
2023-03-04T05:54:16.243Z,-286.55
2023-03-04T05:55:19.528Z,322.73
2023-03-04T05:56:22.816Z,0
2023-03-04T05:57:26.099Z,-322.39
2023-03-04T05:58:29.409Z,-324.95
2023-03-04T05:59:32.698Z,320.17
2023-03-04T06:00:35.993Z,325.29
2023-03-04T06:01:39.264Z,320.17
2023-03-04T06:02:41.569Z,322.73
2023-03-04T06:03:44.870Z,322.73
2023-03-04T06:04:48.161Z,-301.91
2023-03-04T06:05:51.454Z,-281.43
2023-03-04T06:06:54.755Z,-319.83
2023-03-04T06:07:58.051Z,320.17
2023-03-04T06:09:01.384Z,320.17
2023-03-04T06:10:03.637Z,320.17
2023-03-04T06:11:05.972Z,322.73
2023-03-04T06:12:08.293Z,312.49
2023-03-04T06:13:10.583Z,309.93
2023-03-04T06:14:13.854Z,325.29
2023-03-04T06:15:17.156Z,320.17
2023-03-04T06:16:20.436Z,315.05
2023-03-04T06:17:23.729Z,304.81
2023-03-04T06:18:27.033Z,325.29
2023-03-04T06:19:30.318Z,304.81
2023-03-04T06:20:33.617Z,322.73
2023-03-04T06:21:36.906Z,-309.59
2023-03-04T06:23:43.491Z,317.61
2023-03-04T06:24:46.808Z,320.17
2023-03-04T06:25:50.086Z,-317.27
2023-03-04T06:26:52.393Z,312.49
2023-03-04T06:27:55.687Z,312.49
2023-03-04T06:28:58.961Z,322.73
2023-03-04T06:30:02.297Z,322.73
2023-03-04T06:31:05.554Z,-307.03
2023-03-04T06:32:08.839Z,322.73
2023-03-04T06:33:12.265Z,-322.39
2023-03-04T06:34:15.433Z,-314.71
2023-03-04T06:35:17.853Z,-317.27
2023-03-04T06:36:20.094Z,-314.71
2023-03-04T06:37:22.385Z,325.29
2023-03-04T06:38:24.672Z,320.17
2023-03-04T06:39:28.049Z,-322.39
2023-03-04T06:40:31.241Z,304.81
2023-03-04T06:41:34.560Z,-327.51
2023-03-04T06:42:37.885Z,-253.27
2023-03-04T06:44:44.429Z,-299.35
2023-03-04T06:45:47.702Z,-319.83
2023-03-04T06:46:51.001Z,325.29
2023-03-04T06:47:54.326Z,-291.67
2023-03-04T06:48:57.593Z,-289.11
2023-03-04T06:50:00.877Z,-271.19
2023-03-04T06:51:04.174Z,-307.03
2023-03-04T06:52:06.484Z,-276.31
2023-03-04T06:53:09.756Z,-281.43
2023-03-04T06:54:13.061Z,-294.23
2023-03-04T06:55:16.361Z,-286.55
2023-03-04T06:56:19.711Z,-294.23
2023-03-04T06:57:22.956Z,-289.11
2023-03-04T06:58:26.228Z,-307.03
2023-03-04T06:59:29.523Z,-307.03
2023-03-04T07:00:31.880Z,-314.71
2023-03-04T07:01:34.194Z,0
2023-03-04T07:02:37.440Z,-181.59
2023-03-04T07:03:40.820Z,-258.39
2023-03-04T07:04:44.018Z,-291.67
2023-03-04T07:05:47.305Z,-263.51
2023-03-04T07:06:50.697Z,-278.87
2023-03-04T07:07:53.927Z,-309.59
2023-03-04T07:08:57.190Z,-296.79
2023-03-04T07:10:00.517Z,-317.27
2023-03-04T07:11:03.785Z,-327.51
2023-03-04T07:12:07.141Z,-319.83
2023-03-04T07:13:10.399Z,-296.79
2023-03-04T07:14:13.644Z,-296.79
2023-03-04T07:15:15.980Z,-294.23
2023-03-04T07:16:19.249Z,-314.71
2023-03-04T07:17:22.539Z,-271.19
2023-03-04T07:18:25.827Z,-289.11
2023-03-04T07:20:32.423Z,-286.55
2023-03-04T07:21:35.831Z,-286.55
2023-03-04T07:22:39.003Z,-268.63
2023-03-04T07:23:41.304Z,-268.63
2023-03-04T07:24:43.623Z,-266.07
2023-03-04T07:25:47.100Z,-289.11
2023-03-04T07:26:49.350Z,-301.91
2023-03-04T07:27:51.677Z,-299.35
2023-03-04T07:28:53.977Z,-296.79
2023-03-04T07:29:57.275Z,-278.87
2023-03-04T07:31:00.569Z,-286.55
2023-03-04T07:32:03.871Z,-263.51
2023-03-04T07:33:07.153Z,-299.35
2023-03-04T07:34:10.452Z,-286.55
2023-03-04T07:35:13.794Z,-286.55
2023-03-04T07:36:17.031Z,-283.99
2023-03-04T07:37:20.334Z,-301.91
2023-03-04T07:38:23.623Z,-148.31
2023-03-04T07:39:26.964Z,-45.91
2023-03-04T07:40:30.292Z,-209.75
2023-03-04T07:41:33.527Z,-230.23
2023-03-04T07:42:35.798Z,-232.79
2023-03-04T07:43:38.101Z,-235.35
2023-03-04T07:44:41.384Z,-260.95
2023-03-04T07:45:44.740Z,-281.43
2023-03-04T07:46:47.994Z,-271.19
2023-03-04T07:47:51.270Z,-281.43
2023-03-04T07:48:54.591Z,-294.23
2023-03-04T07:49:56.886Z,-299.35
2023-03-04T07:50:59.213Z,-307.03
2023-03-04T07:52:01.585Z,-304.47
2023-03-04T07:53:04.901Z,-296.79
2023-03-04T07:54:08.196Z,-299.35
2023-03-04T07:55:11.633Z,-304.47
2023-03-04T07:56:14.785Z,-299.35
2023-03-04T07:57:18.081Z,-294.23
2023-03-04T07:58:21.358Z,-289.11
2023-03-04T07:59:24.680Z,-299.35
2023-03-04T08:00:27.968Z,-307.03
2023-03-04T08:01:31.338Z,0
2023-03-04T08:02:34.587Z,-307.03
2023-03-04T08:03:37.990Z,-278.87
2023-03-04T08:04:41.134Z,-268.63
2023-03-04T08:05:44.431Z,-294.23
2023-03-04T08:06:46.798Z,-268.63
2023-03-04T08:07:50.100Z,-307.03
2023-03-04T08:08:53.302Z,-296.79
2023-03-04T08:09:56.592Z,-268.63
2023-03-04T08:10:59.894Z,-278.87
2023-03-04T08:12:03.210Z,-299.35
2023-03-04T08:13:06.511Z,-286.55
2023-03-04T08:14:08.797Z,-281.43
2023-03-04T08:15:11.213Z,-296.79
2023-03-04T08:16:13.434Z,-294.23
2023-03-04T08:17:15.760Z,-289.11
2023-03-04T08:18:19.636Z,-286.55
2023-03-04T08:19:22.910Z,-291.67
2023-03-04T08:20:26.210Z,-281.43
2023-03-04T08:21:29.590Z,-276.31
2023-03-04T08:22:32.892Z,-271.19
2023-03-04T08:23:36.096Z,-253.27
2023-03-04T08:24:39.383Z,-250.71
2023-03-04T08:25:42.655Z,-196.95
2023-03-04T08:26:46.064Z,-184.15
2023-03-04T08:27:49.254Z,-214.87
2023-03-04T08:28:52.550Z,-268.63
2023-03-04T08:29:55.836Z,-283.99
2023-03-04T08:30:58.159Z,-276.31
2023-03-04T08:32:01.430Z,-276.31
2023-03-04T08:33:04.757Z,-276.31
2023-03-04T08:34:08.100Z,-283.99
2023-03-04T08:35:11.423Z,-260.95
2023-03-04T08:36:14.672Z,-268.63
2023-03-04T08:37:17.914Z,-276.31
2023-03-04T08:38:20.213Z,-281.43
2023-03-04T08:39:22.814Z,-299.35
2023-03-04T08:40:25.064Z,-286.55
2023-03-04T08:41:27.363Z,-278.87
2023-03-04T08:42:30.684Z,-291.67
2023-03-04T08:43:33.970Z,-281.43
2023-03-04T08:44:37.288Z,-286.55
2023-03-04T08:45:40.691Z,-296.79
2023-03-04T08:46:43.938Z,-278.87
2023-03-04T08:47:47.103Z,-294.23
2023-03-04T08:48:50.416Z,-294.23
2023-03-04T08:49:53.701Z,-299.35
2023-03-04T08:50:57.045Z,-281.43
2023-03-04T08:52:00.442Z,-299.35
2023-03-04T08:53:03.555Z,-283.99
2023-03-04T08:54:07.051Z,-291.67
2023-03-04T08:55:09.225Z,-276.31
2023-03-04T08:56:12.468Z,-301.91
2023-03-04T08:57:15.757Z,-289.11
2023-03-04T08:58:19.081Z,-294.23
2023-03-04T08:59:22.863Z,-317.27
2023-03-04T09:00:26.160Z,-299.35
2023-03-04T09:01:29.457Z,-296.79
2023-03-04T09:02:31.753Z,-273.75
2023-03-04T09:03:34.070Z,-289.11
2023-03-04T09:04:36.435Z,-296.79
2023-03-04T09:05:38.760Z,-299.35
2023-03-04T09:06:42.006Z,-307.03
2023-03-04T09:07:45.283Z,-309.59
2023-03-04T09:08:48.563Z,-296.79
2023-03-04T09:09:51.886Z,-301.91
2023-03-04T09:10:55.148Z,-299.35
2023-03-04T09:11:58.472Z,-309.59
2023-03-04T09:13:01.739Z,-309.59
2023-03-04T09:14:05.034Z,-296.79
2023-03-04T09:15:08.361Z,-322.39
2023-03-04T09:16:11.724Z,-304.47
2023-03-04T09:17:14.920Z,-304.47
2023-03-04T09:18:18.308Z,-299.35
2023-03-04T09:19:20.609Z,-283.99
2023-03-04T09:20:23.796Z,-268.63
2023-03-04T09:21:27.110Z,-286.55
2023-03-04T09:22:30.433Z,-289.11
2023-03-04T09:23:33.736Z,-304.47
2023-03-04T09:24:37.045Z,-299.35
2023-03-04T09:25:40.260Z,-309.59
2023-03-04T09:26:42.572Z,-289.11
2023-03-04T09:27:44.888Z,-294.23
2023-03-04T09:28:47.180Z,-286.55
2023-03-04T09:29:49.604Z,-314.71
2023-03-04T09:30:52.925Z,-309.59
2023-03-04T09:31:56.140Z,-307.03
2023-03-04T09:32:59.396Z,-309.59
2023-03-04T09:34:02.667Z,-263.51
2023-03-04T09:35:06.028Z,-289.11
2023-03-04T09:36:09.387Z,-296.79
2023-03-04T09:37:12.532Z,-319.83
2023-03-04T09:38:15.852Z,-314.71
2023-03-04T09:39:19.134Z,-314.71
2023-03-04T09:40:23.142Z,320.17
2023-03-04T09:41:26.407Z,-324.95
2023-03-04T09:42:29.772Z,-322.39
2023-03-04T09:43:32.036Z,-271.19
2023-03-04T09:44:35.304Z,-266.07
2023-03-04T09:45:38.597Z,307.37
2023-03-04T09:46:41.893Z,289.45
2023-03-04T09:47:45.182Z,286.89
2023-03-04T09:48:48.483Z,294.57
2023-03-04T09:49:51.759Z,307.37
2023-03-04T09:50:54.083Z,-212.31
2023-03-04T09:51:56.406Z,-132.95
2023-03-04T09:52:59.742Z,-173.91
2023-03-04T09:54:01.977Z,-196.95
2023-03-04T09:55:04.286Z,-186.71
2023-03-04T09:56:07.642Z,-181.59
2023-03-04T09:57:10.875Z,-235.35
2023-03-04T09:58:14.205Z,-240.47
2023-03-04T09:59:17.447Z,-235.35
2023-03-04T10:00:20.765Z,-196.95
2023-03-04T10:01:24.043Z,-286.55
2023-03-04T10:02:27.342Z,-196.95
2023-03-04T10:03:30.634Z,-163.67
2023-03-04T10:04:33.924Z,-179.03
2023-03-04T10:05:37.216Z,-135.51
2023-03-04T10:06:40.524Z,-153.43
2023-03-04T10:07:43.794Z,-168.79
2023-03-04T10:08:46.117Z,-225.11
2023-03-04T10:09:49.401Z,-248.15
2023-03-04T10:10:52.692Z,-248.15
2023-03-04T10:11:55.982Z,-278.87
2023-03-04T10:12:59.280Z,-268.63
2023-03-04T10:14:02.624Z,-271.19
2023-03-04T10:15:05.895Z,-225.11
2023-03-04T10:16:08.175Z,-245.59
2023-03-04T10:17:10.499Z,-225.11
2023-03-04T10:18:12.793Z,-232.79
2023-03-04T10:19:15.098Z,-230.23
2023-03-04T10:20:18.430Z,-235.35
2023-03-04T10:21:21.671Z,-217.43
2023-03-04T10:22:24.981Z,-235.35
2023-03-04T10:23:28.262Z,-191.83
2023-03-04T10:24:31.574Z,-189.27
2023-03-04T10:25:34.861Z,-176.47
2023-03-04T10:26:38.165Z,-176.47
2023-03-04T10:27:41.427Z,-204.63
2023-03-04T10:28:44.726Z,-214.87
2023-03-04T10:29:48.032Z,-248.15
2023-03-04T10:30:51.325Z,-266.07
2023-03-04T10:31:54.630Z,-258.39
2023-03-04T10:32:56.899Z,-271.19
2023-03-04T10:34:00.226Z,-222.55
2023-03-04T10:35:03.504Z,-255.83
2023-03-04T10:36:06.784Z,-248.15
2023-03-04T10:37:10.159Z,-273.75
2023-03-04T10:38:13.375Z,-194.39
2023-03-04T10:39:16.658Z,-237.91
2023-03-04T10:40:19.080Z,-209.75
2023-03-04T10:41:21.298Z,-196.95
2023-03-04T10:42:24.594Z,-209.75
2023-03-04T10:43:27.919Z,-214.87
2023-03-04T10:44:31.190Z,-237.91
2023-03-04T10:45:34.511Z,-230.23
2023-03-04T10:46:37.903Z,-219.99
2023-03-04T10:47:41.027Z,-209.75
2023-03-04T10:48:44.384Z,-237.91
2023-03-04T10:49:47.704Z,-222.55
2023-03-04T10:50:51.017Z,-227.67
2023-03-04T10:51:54.206Z,-232.79
2023-03-04T10:52:57.464Z,-227.67
2023-03-04T10:54:00.824Z,-212.31
2023-03-04T10:55:03.085Z,-194.39
2023-03-04T10:56:06.381Z,-207.19
2023-03-04T10:57:09.651Z,-209.75
2023-03-04T10:58:12.962Z,-237.91
2023-03-04T10:59:16.228Z,-230.23
2023-03-04T11:00:19.566Z,-219.99
2023-03-04T11:01:22.833Z,-204.63
2023-03-04T11:02:26.767Z,-204.63
2023-03-04T11:03:29.069Z,-225.11
2023-03-04T11:04:31.346Z,-235.35
2023-03-04T11:05:34.659Z,-214.87
2023-03-04T11:06:37.941Z,-219.99
2023-03-04T11:07:41.247Z,-217.43
2023-03-04T11:08:44.578Z,-232.79
2023-03-04T11:09:47.835Z,-240.47
2023-03-04T11:10:51.187Z,-240.47
2023-03-04T11:11:54.413Z,-240.47
2023-03-04T11:12:57.705Z,-263.51
2023-03-04T11:14:00.995Z,-299.35
2023-03-04T11:15:03.310Z,-301.91
2023-03-04T11:16:06.582Z,-199.51
2023-03-04T11:17:09.889Z,-199.51
2023-03-04T11:18:13.163Z,-140.63
2023-03-04T11:19:16.465Z,-84.31
2023-03-04T11:20:19.748Z,-51.03
2023-03-04T11:21:23.772Z,-107.35
2023-03-04T11:22:27.060Z,-104.79
2023-03-04T11:23:30.351Z,-291.67
2023-03-04T11:24:33.725Z,268.97
2023-03-04T11:25:35.939Z,243.37
2023-03-04T11:26:38.273Z,276.65
2023-03-04T11:27:40.560Z,271.53
2023-03-04T11:28:42.884Z,307.37
2023-03-04T11:29:45.219Z,302.25
2023-03-04T11:30:47.517Z,320.17
2023-03-04T11:31:50.841Z,-319.83
2023-03-04T11:32:54.080Z,325.29
2023-03-04T11:33:57.353Z,322.73
2023-03-04T11:35:00.670Z,-309.59
2023-03-04T11:36:03.962Z,-283.99
2023-03-04T11:37:07.291Z,-278.87
2023-03-04T11:38:10.544Z,-248.15
2023-03-04T11:39:13.846Z,-271.19
2023-03-04T11:40:17.141Z,-276.31
2023-03-04T11:41:21.064Z,-258.39
2023-03-04T11:42:24.352Z,-237.91
2023-03-04T11:43:27.659Z,-258.39
2023-03-04T11:44:29.977Z,-243.03
2023-03-04T11:45:33.248Z,-230.23
2023-03-04T11:46:36.553Z,-222.55
2023-03-04T11:47:39.868Z,-225.11
2023-03-04T11:48:43.131Z,-235.35
2023-03-04T11:49:46.429Z,-237.91
2023-03-04T11:50:49.793Z,-258.39
2023-03-04T11:51:52.029Z,-271.19
2023-03-04T11:52:54.333Z,-227.67
2023-03-04T11:53:56.661Z,-232.79
2023-03-04T11:54:58.999Z,-258.39
2023-03-04T11:56:02.275Z,-266.07
2023-03-04T11:57:05.602Z,-237.91
2023-03-04T11:58:08.814Z,-250.71
2023-03-04T11:59:12.122Z,-273.75
2023-03-04T12:00:15.603Z,-289.11
2023-03-04T12:01:18.794Z,-240.47
2023-03-04T12:02:22.046Z,-232.79
2023-03-04T12:03:25.284Z,-235.35
2023-03-04T12:04:28.606Z,-217.43
2023-03-04T12:05:31.865Z,-248.15
2023-03-04T12:06:35.146Z,-260.95
2023-03-04T12:07:38.694Z,-266.07
2023-03-04T12:08:40.869Z,-301.91
2023-03-04T12:09:44.084Z,266.41
2023-03-04T12:10:47.482Z,299.69
2023-03-04T12:11:50.640Z,-214.87
2023-03-04T12:12:53.935Z,-296.79
2023-03-04T12:13:57.303Z,-324.95
2023-03-04T12:15:00.533Z,279.21
2023-03-04T12:16:02.824Z,263.85
2023-03-04T12:17:05.135Z,258.73
2023-03-04T12:18:07.444Z,266.41
2023-03-04T12:19:09.872Z,268.97
2023-03-04T12:20:13.056Z,299.69
2023-03-04T12:21:16.360Z,294.57
2023-03-04T12:22:19.626Z,274.09
2023-03-04T12:23:22.942Z,289.45
2023-03-04T12:24:26.290Z,279.21
2023-03-04T12:25:29.515Z,292.01
2023-03-04T12:26:32.846Z,276.65
2023-03-04T12:27:36.110Z,271.53
2023-03-04T12:28:39.392Z,284.33
2023-03-04T12:29:42.679Z,-317.27
2023-03-04T12:30:46.020Z,-322.39
2023-03-04T12:31:49.263Z,299.69
2023-03-04T12:32:51.576Z,299.69
2023-03-04T12:33:54.850Z,266.41
2023-03-04T12:34:58.132Z,276.65
2023-03-04T12:36:01.444Z,309.93
2023-03-04T12:37:04.726Z,289.45
2023-03-04T12:38:08.089Z,279.21
2023-03-04T12:39:11.296Z,271.53
2023-03-04T12:40:13.623Z,279.21
2023-03-04T12:41:15.932Z,284.33
2023-03-04T12:42:18.360Z,312.49
2023-03-04T12:43:21.312Z,325.29
2023-03-04T12:44:24.550Z,304.81
2023-03-04T12:45:27.854Z,-324.95
2023-03-04T12:46:31.134Z,307.37
2023-03-04T12:47:34.449Z,-327.51
2023-03-04T12:48:37.707Z,304.81
2023-03-04T12:49:41.015Z,307.37
2023-03-04T12:50:44.298Z,-319.83
2023-03-04T12:51:47.600Z,322.73
2023-03-04T12:52:50.898Z,-299.35
2023-03-04T12:53:54.186Z,-309.59
2023-03-04T12:54:57.487Z,0
2023-03-04T12:56:00.767Z,-289.11
2023-03-04T12:57:03.074Z,-291.67
2023-03-04T12:58:06.373Z,-291.67
2023-03-04T12:59:09.670Z,-312.15
2023-03-04T13:00:12.943Z,-324.95
2023-03-04T13:01:16.245Z,325.29
2023-03-04T13:02:19.539Z,317.61
2023-03-04T13:03:22.848Z,297.13
2023-03-04T13:04:25.157Z,-322.39